Terminal Aerodrome Forecast
Issued by NWS

Home | Current Version | Previous Version | Text Only | Print | Product List | Glossary On
Versions: 1 2 3 4 5 6 7 8 9 10 11 12 13 14
587
FTUS43 KEAX 261725
TAFMKC
TAF
KMKC 261725Z 2618/2718 25006KT P6SM OVC018
     FM262100 VRB03KT P6SM BKN025
     FM270400 04006KT 5SM -SHRA BR OVC012
     FM270800 02006KT 3SM -SHRA BR OVC006
     FM271600 01009KT P6SM OVC012=

USA.gov is the U.S. government's official web portal to all federal, state and local government web resources and services.